createdAt,value
2019-02-06T00:01:17.164Z,28.20
2019-02-06T00:03:43.889Z,28.80
2019-02-06T00:06:10.648Z,29.03
2019-02-06T00:08:37.589Z,28.13
2019-02-06T00:11:04.550Z,30.07
2019-02-06T00:13:31.692Z,27.90
2019-02-06T00:15:58.378Z,29.33
2019-02-06T00:18:26.167Z,28.10
2019-02-06T00:20:53.026Z,27.43
2019-02-06T00:23:19.764Z,29.40
2019-02-06T00:25:46.424Z,27.40
2019-02-06T00:28:13.102Z,29.03
2019-02-06T00:30:41.519Z,30.40
2019-02-06T00:33:09.436Z,30.43
2019-02-06T00:35:37.771Z,30.60
2019-02-06T00:38:05.442Z,30.57
2019-02-06T00:40:32.379Z,32.20
2019-02-06T00:42:59.007Z,29.73
2019-02-06T00:45:25.902Z,34.03
2019-02-06T00:47:52.638Z,31.30
2019-02-06T00:50:19.501Z,33.30
2019-02-06T00:52:46.065Z,30.47
2019-02-06T00:55:13.708Z,30.93
2019-02-06T00:57:40.379Z,31.50
2019-02-06T01:00:15.509Z,30.37
2019-02-06T01:02:43.762Z,31.07
2019-02-06T01:05:13.864Z,29.67
2019-02-06T01:07:40.541Z,29.13
2019-02-06T01:10:10.847Z,30.87
2019-02-06T01:12:37.465Z,29.50
2019-02-06T01:15:05.087Z,30.07
2019-02-06T01:17:32.663Z,28.40
2019-02-06T01:19:59.265Z,32.50
2019-02-06T01:22:25.772Z,29.23
2019-02-06T01:24:52.528Z,30.60
2019-02-06T01:27:19.135Z,30.43
2019-02-06T01:29:45.717Z,29.70
2019-02-06T01:32:12.425Z,29.53
2019-02-06T01:34:39.047Z,29.50
2019-02-06T01:37:05.612Z,30.17
2019-02-06T01:39:32.221Z,28.70
2019-02-06T01:41:58.828Z,30.00
2019-02-06T01:44:25.756Z,30.33
2019-02-06T01:46:52.475Z,29.27
2019-02-06T01:49:19.079Z,30.53
2019-02-06T01:51:45.678Z,29.20
2019-02-06T01:54:12.298Z,28.40
2019-02-06T01:56:39.019Z,30.33
2019-02-06T01:59:05.572Z,29.00
2019-02-06T02:01:32.080Z,30.37
2019-02-06T02:03:58.674Z,29.57
2019-02-06T02:06:25.173Z,31.03
2019-02-06T02:08:53.735Z,29.67
2019-02-06T02:11:22.150Z,30.07
2019-02-06T02:13:48.677Z,29.47
2019-02-06T02:16:15.187Z,30.30
2019-02-06T02:18:41.820Z,30.43
2019-02-06T02:21:08.496Z,30.00
2019-02-06T02:23:35.475Z,31.37
2019-02-06T02:26:02.292Z,32.20
2019-02-06T02:28:29.102Z,29.80
2019-02-06T02:30:55.885Z,31.60
2019-02-06T02:33:22.587Z,29.40
2019-02-06T02:35:50.064Z,31.13
2019-02-06T02:38:16.686Z,32.60
2019-02-06T02:40:43.347Z,29.87
2019-02-06T02:43:10.270Z,32.70
2019-02-06T02:45:36.735Z,29.70
2019-02-06T02:48:03.543Z,31.80
2019-02-06T02:50:30.291Z,31.43
2019-02-06T02:52:56.963Z,30.87
2019-02-06T02:55:25.279Z,28.10
2019-02-06T02:57:51.956Z,30.87
2019-02-06T03:00:21.640Z,31.27
2019-02-06T03:02:50.641Z,30.50
2019-02-06T03:05:20.341Z,31.90
2019-02-06T03:07:46.903Z,30.57
2019-02-06T03:10:13.595Z,29.10
2019-02-06T03:12:40.289Z,31.33
2019-02-06T03:15:08.010Z,29.00
2019-02-06T03:17:34.966Z,29.70
2019-02-06T03:20:01.832Z,30.87
2019-02-06T03:22:28.360Z,31.73
2019-02-06T03:24:55.104Z,29.20
2019-02-06T03:27:21.671Z,28.67
2019-02-06T03:29:48.368Z,31.73
2019-02-06T03:32:14.949Z,32.70
2019-02-06T03:34:41.627Z,29.90
2019-02-06T03:37:08.489Z,30.33
2019-02-06T03:39:36.299Z,31.20
2019-02-06T03:42:03.409Z,29.67
2019-02-06T03:44:30.089Z,28.67
2019-02-06T03:46:56.681Z,29.53
2019-02-06T03:49:23.325Z,29.03
2019-02-06T03:51:50.015Z,28.47
2019-02-06T03:54:16.561Z,26.67
2019-02-06T03:56:44.662Z,26.70
2019-02-06T03:59:11.325Z,26.93
2019-02-06T04:01:38.135Z,28.07
2019-02-06T04:04:04.900Z,28.10
2019-02-06T04:06:31.598Z,27.63
2019-02-06T04:08:58.184Z,25.37
2019-02-06T04:11:24.894Z,28.00
2019-02-06T04:13:53.145Z,29.13
2019-02-06T04:16:20.054Z,27.57
2019-02-06T04:18:46.627Z,28.03
2019-02-06T04:21:13.256Z,26.77
2019-02-06T04:23:39.933Z,26.90
2019-02-06T04:26:06.532Z,27.13
2019-02-06T04:28:33.122Z,27.50
2019-02-06T04:30:59.730Z,26.60
2019-02-06T04:33:26.304Z,26.57
2019-02-06T04:35:53.320Z,27.07
2019-02-06T04:38:19.881Z,28.20
2019-02-06T04:40:46.612Z,26.03
2019-02-06T04:43:13.185Z,26.40
2019-02-06T04:45:39.775Z,27.67
2019-02-06T04:48:06.354Z,25.27
2019-02-06T04:50:33.069Z,25.73
2019-02-06T04:52:59.730Z,27.60
2019-02-06T04:55:27.325Z,28.40
2019-02-06T04:57:54.006Z,28.57
2019-02-06T05:00:23.885Z,27.87
2019-02-06T05:02:52.243Z,27.37
2019-02-06T05:05:19.005Z,28.30
2019-02-06T05:07:45.856Z,29.00
2019-02-06T05:10:13.253Z,28.03
2019-02-06T05:12:40.090Z,29.07
2019-02-06T05:15:08.586Z,30.10
2019-02-06T05:17:35.311Z,27.37
2019-02-06T05:20:05.669Z,28.03
2019-02-06T05:22:32.292Z,30.37
2019-02-06T05:24:59.048Z,29.63
2019-02-06T05:27:26.170Z,32.37
2019-02-06T05:29:54.437Z,31.03
2019-02-06T05:32:21.867Z,31.77
2019-02-06T05:34:48.407Z,30.63
2019-02-06T05:37:15.051Z,31.10
2019-02-06T05:39:42.032Z,30.60
2019-02-06T05:42:08.729Z,32.63
2019-02-06T05:44:35.701Z,30.90
2019-02-06T05:47:02.385Z,32.37
2019-02-06T05:49:28.952Z,32.63
2019-02-06T05:51:55.746Z,33.70
2019-02-06T05:54:22.412Z,32.47
2019-02-06T05:56:49.254Z,31.70
2019-02-06T05:59:15.910Z,31.43
2019-02-06T06:01:42.501Z,32.27
2019-02-06T06:04:09.168Z,31.90
2019-02-06T06:06:35.793Z,33.10
2019-02-06T06:09:05.926Z,30.40
2019-02-06T06:11:33.031Z,33.67
2019-02-06T06:13:59.581Z,34.00
2019-02-06T06:16:26.170Z,34.73
2019-02-06T06:18:52.740Z,34.27
2019-02-06T06:21:19.344Z,33.47
2019-02-06T06:23:45.897Z,34.50
2019-02-06T06:26:12.579Z,33.17
2019-02-06T06:28:39.181Z,33.30
2019-02-06T06:31:05.775Z,34.00
2019-02-06T06:33:32.801Z,33.77
2019-02-06T06:35:59.458Z,32.10
2019-02-06T06:38:26.172Z,31.77
2019-02-06T06:40:52.784Z,33.03
2019-02-06T06:43:19.355Z,31.73
2019-02-06T06:45:46.130Z,31.70
2019-02-06T06:48:13.227Z,31.00
2019-02-06T06:50:39.943Z,32.20
2019-02-06T06:53:06.841Z,31.70
2019-02-06T06:55:35.200Z,31.80
2019-02-06T06:58:02.825Z,33.80
2019-02-06T07:00:30.218Z,33.70
2019-02-06T07:02:57.314Z,33.77
2019-02-06T07:05:25.709Z,36.00
2019-02-06T07:07:52.916Z,35.37
2019-02-06T07:10:21.479Z,34.13
2019-02-06T07:12:50.144Z,35.37
2019-02-06T07:15:28.862Z,34.23
2019-02-06T07:17:55.581Z,36.17
2019-02-06T07:20:22.492Z,39.03
2019-02-06T07:22:49.128Z,33.47
2019-02-06T07:25:18.225Z,35.07
2019-02-06T07:27:44.930Z,33.17
2019-02-06T07:30:17.725Z,34.60
2019-02-06T07:32:44.385Z,33.77
2019-02-06T07:35:11.146Z,34.50
2019-02-06T07:37:39.452Z,34.83
2019-02-06T07:40:09.027Z,34.60
2019-02-06T07:42:36.853Z,35.03
2019-02-06T07:45:06.941Z,34.27
2019-02-06T07:47:33.649Z,34.33
2019-02-06T07:50:00.468Z,32.40
2019-02-06T07:52:27.539Z,34.37
2019-02-06T07:54:54.264Z,33.83
2019-02-06T07:57:20.919Z,35.20
2019-02-06T07:59:47.814Z,32.10
2019-02-06T08:02:14.364Z,33.90
2019-02-06T08:04:41.679Z,31.70
2019-02-06T08:07:08.330Z,32.50
2019-02-06T08:09:35.029Z,33.90
2019-02-06T08:12:03.405Z,34.07
2019-02-06T08:14:30.619Z,33.43
2019-02-06T08:16:57.380Z,31.40
2019-02-06T08:19:24.478Z,31.87
2019-02-06T08:21:51.155Z,30.73
2019-02-06T08:24:17.851Z,31.73
2019-02-06T08:26:44.598Z,31.77
2019-02-06T08:29:11.338Z,32.27
2019-02-06T08:31:38.128Z,30.77
2019-02-06T08:34:06.421Z,28.50
2019-02-06T08:36:33.684Z,30.77
2019-02-06T08:39:00.478Z,30.00
2019-02-06T08:41:27.651Z,29.30
2019-02-06T08:43:54.536Z,29.60
2019-02-06T08:46:21.315Z,29.93
2019-02-06T08:48:48.073Z,27.50
2019-02-06T08:51:14.802Z,26.90
2019-02-06T08:53:41.556Z,26.33
2019-02-06T08:56:09.504Z,26.70
2019-02-06T08:58:36.474Z,24.57
2019-02-06T09:01:03.518Z,28.27
2019-02-06T09:03:30.343Z,24.33
2019-02-06T09:05:56.913Z,26.07
2019-02-06T09:08:23.619Z,23.47
2019-02-06T09:10:50.479Z,25.23
2019-02-06T09:13:17.073Z,25.03
2019-02-06T09:15:44.451Z,24.13
2019-02-06T09:18:11.153Z,24.33
2019-02-06T09:20:37.810Z,21.80
2019-02-06T09:23:04.787Z,22.30
2019-02-06T09:25:32.098Z,23.70
2019-02-06T09:27:59.207Z,21.90
2019-02-06T09:30:28.300Z,21.77
2019-02-06T09:32:55.469Z,23.70
2019-02-06T09:35:22.719Z,21.80
2019-02-06T09:37:49.310Z,21.47
2019-02-06T09:40:18.323Z,21.93
2019-02-06T09:42:44.964Z,20.33
2019-02-06T09:45:13.326Z,19.80
2019-02-06T09:47:40.043Z,20.07
2019-02-06T09:50:13.059Z,18.83
2019-02-06T09:52:39.935Z,19.63
2019-02-06T09:55:06.957Z,20.80
2019-02-06T09:57:35.424Z,19.20
2019-02-06T10:00:04.253Z,20.87
2019-02-06T10:02:30.709Z,19.67
2019-02-06T10:04:57.314Z,18.90
2019-02-06T10:07:24.085Z,18.20
2019-02-06T10:09:50.692Z,19.77
2019-02-06T10:12:17.510Z,18.33
2019-02-06T10:14:44.069Z,18.30
2019-02-06T10:17:10.754Z,17.97
2019-02-06T10:19:37.355Z,18.73
2019-02-06T10:22:04.031Z,19.97
2019-02-06T10:24:30.630Z,18.90
2019-02-06T10:26:57.292Z,18.53
2019-02-06T10:29:23.896Z,17.67
2019-02-06T10:31:50.674Z,18.13
2019-02-06T10:34:17.266Z,17.83
2019-02-06T10:36:43.797Z,18.13
2019-02-06T10:39:10.415Z,18.17
2019-02-06T10:41:37.094Z,18.90
2019-02-06T10:44:04.072Z,17.90
2019-02-06T10:46:30.672Z,18.27
2019-02-06T10:48:57.246Z,18.60
2019-02-06T10:51:24.329Z,19.03
2019-02-06T10:53:51.049Z,18.43
2019-02-06T10:56:17.671Z,17.20
2019-02-06T10:58:44.324Z,16.93
2019-02-06T11:01:11.076Z,18.07
2019-02-06T11:03:37.623Z,18.73
2019-02-06T11:06:04.316Z,19.20
2019-02-06T11:08:30.774Z,19.07
2019-02-06T11:10:57.979Z,17.53
2019-02-06T11:13:24.751Z,18.47
2019-02-06T11:15:51.643Z,17.57
2019-02-06T11:18:18.128Z,17.23
2019-02-06T11:20:45.141Z,17.20
2019-02-06T11:23:12.017Z,17.90
2019-02-06T11:25:38.809Z,16.27
2019-02-06T11:28:06.309Z,17.37
2019-02-06T11:30:35.593Z,17.33
2019-02-06T11:33:02.767Z,16.53
2019-02-06T11:35:29.463Z,17.70
2019-02-06T11:37:56.144Z,18.07
2019-02-06T11:40:23.945Z,18.33
2019-02-06T11:42:51.120Z,16.80
2019-02-06T11:45:20.662Z,18.20
2019-02-06T11:47:47.603Z,17.43
2019-02-06T11:50:17.116Z,17.37
2019-02-06T11:52:44.120Z,17.37
2019-02-06T11:55:13.934Z,16.27
2019-02-06T11:57:40.613Z,17.90
2019-02-06T12:00:14.527Z,17.20
2019-02-06T12:02:41.505Z,17.50
2019-02-06T12:05:08.992Z,17.63
2019-02-06T12:07:35.686Z,18.00
2019-02-06T12:10:10.231Z,16.70
2019-02-06T12:12:38.806Z,16.90
2019-02-06T12:15:12.376Z,16.20
2019-02-06T12:17:40.256Z,16.50
2019-02-06T12:20:12.952Z,16.50
2019-02-06T12:22:39.795Z,16.30
2019-02-06T12:25:09.114Z,17.63
2019-02-06T12:27:35.825Z,16.57
2019-02-06T12:30:06.368Z,17.47
2019-02-06T12:32:33.043Z,14.83
2019-02-06T12:35:00.200Z,16.00
2019-02-06T12:37:27.097Z,16.07
2019-02-06T12:39:54.776Z,18.50
2019-02-06T12:42:22.556Z,16.43
2019-02-06T12:44:49.283Z,17.60
2019-02-06T12:47:17.147Z,17.13
2019-02-06T12:49:44.907Z,16.93
2019-02-06T12:52:12.676Z,16.27
2019-02-06T12:54:41.080Z,17.57
2019-02-06T12:57:08.690Z,15.47
2019-02-06T12:59:35.440Z,16.17
2019-02-06T13:02:04.024Z,17.60
2019-02-06T13:04:31.459Z,16.70
2019-02-06T13:07:00.096Z,16.57
2019-02-06T13:09:26.929Z,16.73
2019-02-06T13:11:53.820Z,17.07
2019-02-06T13:14:20.777Z,15.80
2019-02-06T13:16:47.401Z,16.43
2019-02-06T13:19:14.070Z,17.67
2019-02-06T13:21:40.672Z,16.33
2019-02-06T13:24:07.252Z,16.90
2019-02-06T13:26:33.836Z,15.33
2019-02-06T13:29:00.407Z,16.00
2019-02-06T13:31:26.942Z,16.67
2019-02-06T13:33:53.904Z,16.30
2019-02-06T13:36:20.560Z,16.57
2019-02-06T13:38:47.187Z,17.77
2019-02-06T13:41:14.629Z,16.83
2019-02-06T13:43:41.615Z,16.23
2019-02-06T13:46:08.340Z,16.40
2019-02-06T13:48:35.018Z,16.10
2019-02-06T13:51:01.648Z,17.00
2019-02-06T13:53:28.637Z,17.00
2019-02-06T13:55:55.480Z,17.87
2019-02-06T13:58:22.072Z,16.37
2019-02-06T14:00:48.619Z,18.37
2019-02-06T14:03:15.292Z,18.60
2019-02-06T14:05:42.277Z,19.20
2019-02-06T14:08:11.755Z,18.17
2019-02-06T14:10:38.386Z,18.87
2019-02-06T14:13:05.060Z,20.80
2019-02-06T14:15:34.752Z,20.20
2019-02-06T14:18:01.553Z,18.90
2019-02-06T14:20:28.791Z,20.70
2019-02-06T14:23:01.990Z,20.90
2019-02-06T14:25:35.346Z,20.17
2019-02-06T14:28:20.447Z,21.17
2019-02-06T14:30:57.018Z,21.23
2019-02-06T14:33:28.777Z,21.50
2019-02-06T14:35:59.378Z,20.43
2019-02-06T14:38:38.363Z,22.27
2019-02-06T14:41:32.896Z,22.93
2019-02-06T14:44:26.732Z,22.80
2019-02-06T14:47:00.230Z,21.13
2019-02-06T14:49:51.936Z,21.63
2019-02-06T14:52:25.172Z,21.80
2019-02-06T14:55:13.734Z,21.20
2019-02-06T14:57:49.726Z,22.13
2019-02-06T15:00:41.451Z,21.47
2019-02-06T15:03:47.381Z,21.67
2019-02-06T15:06:17.834Z,21.17
2019-02-06T15:09:05.013Z,22.10
2019-02-06T15:11:54.185Z,22.63
2019-02-06T15:14:42.462Z,22.87
2019-02-06T15:17:19.050Z,22.63
2019-02-06T15:20:06.464Z,23.17
2019-02-06T15:22:36.993Z,23.23
2019-02-06T15:25:31.479Z,23.90
2019-02-06T15:28:04.890Z,23.80
2019-02-06T15:30:49.936Z,24.73
2019-02-06T15:33:37.304Z,23.40
2019-02-06T15:36:25.804Z,24.70
2019-02-06T15:38:59.335Z,24.00
2019-02-06T15:41:32.886Z,23.70
2019-02-06T15:44:06.520Z,24.87
2019-02-06T15:46:46.023Z,25.77
2019-02-06T15:49:25.498Z,25.77
2019-02-06T15:52:04.749Z,23.70
2019-02-06T15:54:39.953Z,24.70
2019-02-06T15:57:25.504Z,23.87
2019-02-06T16:00:23.437Z,24.37
2019-02-06T16:02:56.678Z,26.30
2019-02-06T16:05:51.577Z,25.70
2019-02-06T16:08:28.019Z,25.43
2019-02-06T16:11:10.088Z,22.93
2019-02-06T16:13:49.814Z,24.40
2019-02-06T16:16:31.746Z,24.70
2019-02-06T16:19:08.142Z,24.37
2019-02-06T16:21:53.182Z,24.27
2019-02-06T16:24:19.762Z,25.20
2019-02-06T16:27:05.201Z,23.80
2019-02-06T16:29:44.665Z,24.67
2019-02-06T16:32:20.572Z,25.63
2019-02-06T16:34:59.903Z,25.03
2019-02-06T16:37:30.293Z,22.60
2019-02-06T16:40:12.650Z,26.03
2019-02-06T16:42:52.180Z,22.83
2019-02-06T16:45:23.425Z,23.73
2019-02-06T16:48:12.291Z,23.10
2019-02-06T16:50:54.245Z,23.30
2019-02-06T16:53:43.127Z,21.77
2019-02-06T16:56:31.386Z,22.90
2019-02-06T16:59:07.343Z,23.10
2019-02-06T17:01:46.883Z,21.77
2019-02-06T17:04:22.988Z,20.97
2019-02-06T17:07:08.687Z,22.23
2019-02-06T17:09:55.057Z,22.27
2019-02-06T17:12:34.670Z,21.43
2019-02-06T17:15:21.726Z,21.00
2019-02-06T17:18:21.342Z,22.00
2019-02-06T17:21:11.263Z,20.90
2019-02-06T17:23:51.013Z,21.90
2019-02-06T17:26:24.639Z,22.87
2019-02-06T17:29:03.599Z,20.97
2019-02-06T17:31:43.480Z,22.20
2019-02-06T17:34:19.389Z,22.00
2019-02-06T17:36:55.232Z,23.80
2019-02-06T17:39:31.575Z,22.70
2019-02-06T17:42:15.882Z,22.87
2019-02-06T17:44:47.501Z,23.03
2019-02-06T17:47:35.040Z,24.77
2019-02-06T17:50:14.161Z,23.80
2019-02-06T17:52:47.427Z,24.27
2019-02-06T17:55:22.123Z,24.47
2019-02-06T17:57:50.540Z,24.23
2019-02-06T18:00:20.925Z,25.00
2019-02-06T18:02:47.737Z,23.83
2019-02-06T18:05:14.466Z,24.17
2019-02-06T18:07:41.288Z,23.90
2019-02-06T18:10:17.189Z,25.97
2019-02-06T18:12:45.706Z,23.17
2019-02-06T18:15:12.674Z,24.97
2019-02-06T18:17:39.309Z,26.00
2019-02-06T18:20:15.631Z,24.57
2019-02-06T18:22:42.353Z,24.43
2019-02-06T18:25:12.521Z,26.17
2019-02-06T18:27:39.432Z,24.50
2019-02-06T18:30:12.988Z,24.83
2019-02-06T18:32:39.929Z,25.87
2019-02-06T18:35:07.725Z,25.10
2019-02-06T18:37:34.450Z,24.80
2019-02-06T18:40:01.335Z,24.63
2019-02-06T18:42:37.003Z,25.67
2019-02-06T18:44:56.547Z,25.10
2019-02-06T18:47:24.501Z,25.50
2019-02-06T18:49:51.225Z,25.53
2019-02-06T18:52:20.505Z,24.73
2019-02-06T18:54:46.933Z,24.07
2019-02-06T18:57:14.456Z,23.33
2019-02-06T18:59:41.390Z,25.13
2019-02-06T19:02:09.460Z,25.57
2019-02-06T19:04:36.132Z,23.27
2019-02-06T19:07:04.555Z,24.63
2019-02-06T19:09:31.378Z,24.17
2019-02-06T19:11:58.293Z,24.27
2019-02-06T19:14:25.052Z,23.63
2019-02-06T19:16:51.731Z,23.70
2019-02-06T19:19:25.519Z,24.47
2019-02-06T19:21:47.758Z,23.67
2019-02-06T19:24:14.273Z,25.00
2019-02-06T19:26:41.329Z,24.23
2019-02-06T19:29:08.049Z,24.83
2019-02-06T19:31:36.864Z,25.17
2019-02-06T19:34:04.320Z,24.67
2019-02-06T19:36:31.335Z,24.10
2019-02-06T19:38:58.334Z,23.77
2019-02-06T19:41:25.599Z,25.07
2019-02-06T19:43:52.920Z,24.27
2019-02-06T19:46:19.736Z,23.27
2019-02-06T19:48:46.338Z,24.50
2019-02-06T19:51:12.995Z,24.70
2019-02-06T19:53:39.930Z,25.17
2019-02-06T19:56:06.945Z,25.10
2019-02-06T19:58:33.599Z,24.57
2019-02-06T20:01:00.800Z,24.70
2019-02-06T20:03:28.353Z,25.10
2019-02-06T20:05:55.006Z,24.70
2019-02-06T20:08:21.843Z,24.67
2019-02-06T20:10:52.409Z,23.93
2019-02-06T20:13:19.659Z,23.50
2019-02-06T20:15:46.686Z,25.33
2019-02-06T20:18:13.853Z,24.87
2019-02-06T20:20:40.897Z,24.07
2019-02-06T20:23:07.808Z,24.60
2019-02-06T20:25:34.764Z,25.87
2019-02-06T20:28:01.526Z,24.33
2019-02-06T20:30:32.055Z,24.27
2019-02-06T20:32:58.993Z,25.40
2019-02-06T20:35:26.614Z,25.07
2019-02-06T20:37:53.955Z,26.27
2019-02-06T20:40:29.171Z,27.10
2019-02-06T20:42:56.209Z,26.20
2019-02-06T20:45:23.035Z,25.00
2019-02-06T20:47:49.658Z,27.00
2019-02-06T20:50:28.350Z,28.00
2019-02-06T20:52:55.692Z,28.60
2019-02-06T20:55:22.590Z,29.93
2019-02-06T20:57:50.254Z,27.43
2019-02-06T21:00:21.081Z,29.13
2019-02-06T21:02:49.672Z,29.03
2019-02-06T21:05:16.252Z,29.77
2019-02-06T21:07:42.978Z,29.37
2019-02-06T21:10:21.798Z,28.53
2019-02-06T21:12:48.363Z,28.17
2019-02-06T21:15:15.112Z,28.23
2019-02-06T21:17:42.604Z,27.50
2019-02-06T21:20:18.593Z,30.63
2019-02-06T21:22:46.361Z,29.97
2019-02-06T21:25:16.488Z,29.50
2019-02-06T21:27:43.159Z,30.40
2019-02-06T21:30:19.106Z,29.77
2019-02-06T21:32:45.816Z,32.53
2019-02-06T21:35:12.789Z,32.60
2019-02-06T21:37:39.557Z,28.87
2019-02-06T21:40:12.980Z,30.83
2019-02-06T21:42:39.595Z,32.17
2019-02-06T21:45:09.003Z,31.37
2019-02-06T21:47:36.165Z,31.23
2019-02-06T21:50:06.128Z,29.90
2019-02-06T21:52:32.994Z,31.60
2019-02-06T21:54:59.546Z,31.80
2019-02-06T21:57:26.443Z,30.87
2019-02-06T21:59:52.998Z,30.90
2019-02-06T22:02:19.559Z,32.00
2019-02-06T22:04:46.207Z,32.43
2019-02-06T22:07:12.756Z,30.43
2019-02-06T22:09:39.461Z,32.07
2019-02-06T22:12:06.144Z,32.30
2019-02-06T22:14:32.969Z,31.63
2019-02-06T22:17:00.594Z,31.20
2019-02-06T22:19:27.345Z,31.90
2019-02-06T22:21:54.065Z,34.50
2019-02-06T22:24:20.714Z,34.40
2019-02-06T22:26:47.277Z,34.30
2019-02-06T22:29:13.906Z,31.17
2019-02-06T22:31:40.647Z,33.80
2019-02-06T22:34:07.369Z,34.30
2019-02-06T22:36:34.748Z,33.43
2019-02-06T22:39:01.392Z,33.23
2019-02-06T22:41:27.846Z,32.47
2019-02-06T22:43:54.432Z,35.13
2019-02-06T22:46:21.010Z,34.50
2019-02-06T22:48:47.607Z,33.50
2019-02-06T22:51:16.410Z,34.40
2019-02-06T22:53:42.639Z,34.30
2019-02-06T22:56:09.414Z,35.03
2019-02-06T22:58:36.192Z,34.03
2019-02-06T23:01:25.667Z,37.03
2019-02-06T23:03:52.359Z,34.20
2019-02-06T23:06:19.566Z,35.43
2019-02-06T23:08:46.571Z,35.00
2019-02-06T23:11:14.855Z,37.30
2019-02-06T23:13:41.433Z,35.47
2019-02-06T23:16:08.184Z,35.90
2019-02-06T23:18:35.251Z,34.17
2019-02-06T23:21:02.519Z,35.07
2019-02-06T23:23:29.200Z,35.20
2019-02-06T23:25:56.343Z,36.90
2019-02-06T23:28:23.088Z,37.97
2019-02-06T23:30:49.800Z,37.10
2019-02-06T23:33:16.470Z,38.13
2019-02-06T23:35:43.629Z,36.73
2019-02-06T23:38:10.359Z,36.67
2019-02-06T23:40:36.982Z,36.23
2019-02-06T23:43:04.036Z,35.63
2019-02-06T23:45:30.600Z,37.20
2019-02-06T23:47:57.196Z,36.50
2019-02-06T23:50:23.864Z,36.90
2019-02-06T23:52:50.522Z,38.00
2019-02-06T23:55:17.009Z,38.53
2019-02-06T23:57:43.610Z,39.73
